Time;durP1;ratioP1;P1;durP2;ratioP2;P2;SDS_P1;SDS_P2;PMS_P1;PMS_P2;Temp;Humidity;BMP_temperature;BMP_pressure;BME280_temperature;BME280_humidity;BME280_pressure;Samples;Min_cycle;Max_cycle;Signal;HPM_P1;HPM_P2
2021/10/12 00:01:07;;;;;;;28.83;18.80;;;7.30;99.90;;;;;;5062931;28;20204;-44
2021/10/12 00:03:34;;;;;;;28.42;18.23;;;7.50;99.90;;;;;;5068618;28;20253;-46
2021/10/12 00:06:01;;;;;;;32.97;21.27;;;7.70;99.90;;;;;;5062644;28;20208;-46
2021/10/12 00:08:29;;;;;;;26.60;18.27;;;7.80;99.90;;;;;;5074473;28;20248;-48
2021/10/12 00:10:56;;;;;;;30.23;17.52;;;7.90;99.90;;;;;;5073384;28;20244;-51
2021/10/12 00:13:23;;;;;;;30.80;19.20;;;8.10;99.90;;;;;;5067765;28;20228;-44
2021/10/12 00:15:50;;;;;;;39.42;20.58;;;8.20;99.90;;;;;;5065890;28;20223;-47
2021/10/12 00:18:18;;;;;;;23.40;15.27;;;8.30;99.90;;;;;;5073462;28;20217;-44
2021/10/12 00:20:45;;;;;;;25.65;18.35;;;8.40;99.90;;;;;;5065102;28;20505;-48
2021/10/12 00:23:12;;;;;;;25.58;17.15;;;8.50;99.90;;;;;;5061363;28;20281;-43
2021/10/12 00:25:40;;;;;;;31.15;18.90;;;8.70;99.90;;;;;;5063104;28;20199;-47
2021/10/12 00:28:07;;;;;;;24.92;16.10;;;8.70;99.90;;;;;;5069752;28;20422;-53
2021/10/12 00:30:35;;;;;;;27.83;18.27;;;8.50;99.90;;;;;;5064374;28;20327;-46
2021/10/12 00:33:04;;;;;;;31.17;19.20;;;8.50;99.90;;;;;;5063362;28;20220;-45
2021/10/12 00:35:32;;;;;;;29.23;17.20;;;8.50;99.90;;;;;;5065655;28;20219;-47
2021/10/12 00:37:59;;;;;;;22.90;16.10;;;8.50;99.90;;;;;;5065978;28;20195;-46
2021/10/12 00:40:27;;;;;;;23.50;17.02;;;8.70;99.90;;;;;;5060242;28;20199;-47
2021/10/12 00:42:54;;;;;;;28.52;19.50;;;8.80;99.90;;;;;;5068270;28;20215;-50
2021/10/12 00:45:22;;;;;;;24.67;16.42;;;8.70;99.90;;;;;;5079999;28;20198;-47
2021/10/12 00:48:00;;;;;;;32.05;19.55;;;8.60;99.90;;;;;;5066657;28;20199;-46
2021/10/12 00:50:30;;;;;;;22.50;15.32;;;8.70;99.90;;;;;;5070111;28;20402;-46
2021/10/12 00:52:57;;;;;;;19.60;14.85;;;8.70;99.90;;;;;;5068189;28;20418;-47
2021/10/12 00:55:24;;;;;;;26.42;15.50;;;8.40;99.90;;;;;;5069349;28;20456;-44
2021/10/12 00:57:54;;;;;;;27.27;16.70;;;8.30;99.90;;;;;;5082473;28;20199;-51
2021/10/12 01:00:21;;;;;;;23.58;15.13;;;8.30;99.90;;;;;;5091810;28;20370;-44
2021/10/12 01:02:49;;;;;;;24.48;15.32;;;8.30;99.90;;;;;;5095908;28;20214;-48
2021/10/12 01:05:17;;;;;;;20.90;14.93;;;8.10;99.90;;;;;;5091599;28;20514;-47
2021/10/12 01:07:44;;;;;;;22.17;15.18;;;8.00;99.90;;;;;;5094914;28;20202;-45
2021/10/12 01:10:11;;;;;;;24.23;15.18;;;7.90;99.90;;;;;;5090182;28;20228;-44
2021/10/12 01:12:39;;;;;;;30.70;17.70;;;8.10;99.90;;;;;;5093217;28;20279;-47
2021/10/12 01:15:08;;;;;;;28.10;18.25;;;8.20;99.90;;;;;;5096977;28;20243;-48
2021/10/12 01:17:36;;;;;;;27.10;17.10;;;8.30;99.90;;;;;;5094789;28;20195;-51
2021/10/12 01:20:07;;;;;;;27.80;18.25;;;8.40;99.90;;;;;;5096888;28;20198;-53
2021/10/12 01:22:34;;;;;;;30.38;16.33;;;8.40;99.90;;;;;;5102393;28;20440;-47
2021/10/12 01:25:03;;;;;;;32.72;17.80;;;8.60;99.90;;;;;;5091439;28;20248;-49
2021/10/12 01:27:30;;;;;;;29.05;17.17;;;8.60;99.90;;;;;;5100004;28;20198;-47
2021/10/12 01:29:57;;;;;;;32.08;18.92;;;8.70;99.90;;;;;;5097265;28;20198;-45
2021/10/12 01:32:24;;;;;;;25.60;15.75;;;8.60;99.90;;;;;;5091353;28;20218;-48
2021/10/12 01:34:52;;;;;;;21.95;15.55;;;8.70;99.90;;;;;;5097988;28;20194;-46
2021/10/12 01:37:19;;;;;;;22.40;15.43;;;8.60;99.90;;;;;;5084336;28;20436;-44
2021/10/12 01:39:46;;;;;;;17.67;14.05;;;8.60;99.90;;;;;;5099138;28;20198;-49
2021/10/12 01:42:13;;;;;;;25.15;15.50;;;8.40;99.90;;;;;;5093038;28;20631;-49
2021/10/12 01:44:41;;;;;;;25.45;15.52;;;8.30;99.90;;;;;;5094033;28;20217;-44
2021/10/12 01:47:08;;;;;;;23.95;14.95;;;8.10;99.90;;;;;;5093898;28;20423;-47
2021/10/12 01:49:35;;;;;;;25.08;14.35;;;8.10;99.90;;;;;;5087557;28;20221;-44
2021/10/12 01:52:02;;;;;;;26.13;15.77;;;8.00;99.90;;;;;;5091234;28;20493;-46
2021/10/12 01:54:29;;;;;;;20.77;14.32;;;8.20;99.90;;;;;;5085292;28;20259;-47
2021/10/12 01:56:57;;;;;;;23.88;15.65;;;8.30;99.90;;;;;;5093126;28;20261;-47
2021/10/12 01:59:24;;;;;;;23.80;16.42;;;8.60;99.90;;;;;;5094420;28;20194;-44
2021/10/12 02:01:51;;;;;;;22.48;15.57;;;8.80;99.90;;;;;;5095951;28;20194;-48
2021/10/12 02:04:18;;;;;;;22.90;15.45;;;8.90;99.90;;;;;;5085040;28;20245;-48
2021/10/12 02:06:46;;;;;;;22.92;16.02;;;8.80;99.90;;;;;;5095450;28;20220;-48
2021/10/12 02:09:13;;;;;;;23.88;16.27;;;8.90;99.90;;;;;;5084232;28;20210;-45
2021/10/12 02:11:40;;;;;;;30.95;18.48;;;8.80;99.90;;;;;;5075480;28;20205;-45
2021/10/12 02:14:07;;;;;;;24.85;16.23;;;8.70;99.90;;;;;;5079238;28;20272;-47
2021/10/12 02:16:35;;;;;;;22.20;14.57;;;8.80;99.90;;;;;;5070033;28;20219;-47
2021/10/12 02:19:02;;;;;;;29.45;17.60;;;8.80;99.90;;;;;;5079724;28;20227;-50
2021/10/12 02:21:29;;;;;;;26.50;15.82;;;8.80;99.90;;;;;;5061980;28;20242;-49
2021/10/12 02:23:56;;;;;;;25.00;17.80;;;8.80;99.90;;;;;;5067221;28;20261;-48
2021/10/12 02:26:24;;;;;;;26.55;17.65;;;8.80;99.90;;;;;;5068567;28;20201;-44
2021/10/12 02:28:51;;;;;;;17.67;13.38;;;8.90;99.90;;;;;;5063383;28;20199;-49
2021/10/12 02:31:19;;;;;;;20.50;14.25;;;9.00;99.90;;;;;;5072004;28;20402;-49
2021/10/12 02:33:46;;;;;;;18.00;13.93;;;8.90;99.90;;;;;;5066443;28;20227;-51
2021/10/12 02:36:14;;;;;;;22.80;16.70;;;8.90;99.90;;;;;;5067852;28;20268;-46
2021/10/12 02:38:41;;;;;;;18.58;15.05;;;9.00;99.90;;;;;;5071889;28;20209;-45
2021/10/12 02:41:08;;;;;;;16.20;12.18;;;9.00;99.90;;;;;;5064831;28;20233;-43
2021/10/12 02:43:35;;;;;;;17.25;13.20;;;9.10;99.90;;;;;;5066333;28;20419;-48
2021/10/12 02:46:03;;;;;;;18.02;12.15;;;9.10;99.90;;;;;;5068430;28;20272;-46
2021/10/12 02:48:31;;;;;;;23.98;14.95;;;9.10;99.90;;;;;;5074824;28;20429;-45
2021/10/12 02:50:58;;;;;;;15.93;12.45;;;9.10;99.90;;;;;;5061283;28;20441;-48
2021/10/12 02:53:25;;;;;;;16.83;13.00;;;9.20;99.90;;;;;;5068121;28;20434;-44
2021/10/12 02:55:52;;;;;;;19.90;12.52;;;9.20;99.90;;;;;;5070654;28;20219;-47
2021/10/12 02:58:20;;;;;;;18.52;11.75;;;9.20;99.90;;;;;;5073398;28;20252;-49
2021/10/12 03:00:47;;;;;;;20.48;12.68;;;9.20;99.90;;;;;;5064684;28;20199;-49
2021/10/12 03:03:14;;;;;;;18.52;14.35;;;9.10;99.90;;;;;;5060822;28;20213;-45
2021/10/12 03:05:43;;;;;;;18.33;13.57;;;8.90;99.90;;;;;;5066051;28;20222;-50
2021/10/12 03:08:11;;;;;;;18.95;11.85;;;8.80;99.90;;;;;;5077671;28;20203;-45
2021/10/12 03:10:38;;;;;;;18.08;12.00;;;8.60;99.90;;;;;;5064076;28;20199;-48
2021/10/12 03:13:05;;;;;;;15.77;10.68;;;8.50;99.90;;;;;;5067974;28;20238;-44
2021/10/12 03:15:33;;;;;;;16.75;10.88;;;8.50;99.90;;;;;;5060280;28;20218;-45
2021/10/12 03:18:01;;;;;;;17.08;11.85;;;8.60;99.90;;;;;;5080193;28;20265;-46
2021/10/12 03:20:28;;;;;;;20.73;12.80;;;8.40;99.90;;;;;;5067474;28;20407;-44
2021/10/12 03:22:56;;;;;;;16.92;11.52;;;8.40;99.90;;;;;;5068554;28;20261;-49
2021/10/12 03:25:23;;;;;;;18.83;14.43;;;8.40;99.90;;;;;;5071294;28;20217;-42
2021/10/12 03:27:50;;;;;;;19.02;11.20;;;8.40;99.90;;;;;;5073945;28;20198;-47
2021/10/12 03:30:17;;;;;;;17.38;10.43;;;8.60;99.90;;;;;;5080157;28;20198;-44
2021/10/12 03:32:44;;;;;;;18.77;10.65;;;8.60;99.90;;;;;;5073247;28;20223;-46
2021/10/12 03:35:15;;;;;;;17.25;13.30;;;8.60;99.90;;;;;;5065499;28;20210;-45
2021/10/12 03:37:42;;;;;;;15.55;9.90;;;8.80;99.90;;;;;;5060096;28;20235;-47
2021/10/12 03:40:10;;;;;;;17.02;12.18;;;8.80;99.90;;;;;;5059464;28;20429;-49
2021/10/12 03:42:37;;;;;;;13.68;9.75;;;8.90;99.90;;;;;;5065917;28;20274;-44
2021/10/12 03:45:05;;;;;;;11.30;8.57;;;8.90;99.90;;;;;;5067297;28;20328;-46
2021/10/12 03:47:32;;;;;;;11.23;7.90;;;8.80;99.90;;;;;;5065270;28;20208;-44
2021/10/12 03:49:59;;;;;;;18.85;10.25;;;8.90;99.90;;;;;;5069434;28;20256;-49
2021/10/12 03:52:27;;;;;;;12.65;9.07;;;9.10;99.90;;;;;;5069208;28;20264;-45
2021/10/12 03:54:54;;;;;;;11.13;9.05;;;9.00;99.90;;;;;;5078705;28;20436;-47
2021/10/12 03:57:21;;;;;;;15.07;10.35;;;8.90;99.90;;;;;;5063319;28;20223;-45
2021/10/12 03:59:48;;;;;;;12.52;8.60;;;8.90;99.90;;;;;;5065766;28;20242;-45
2021/10/12 04:02:15;;;;;;;11.07;8.20;;;8.90;99.90;;;;;;5076207;28;20400;-45
2021/10/12 04:04:43;;;;;;;10.35;7.55;;;8.90;99.90;;;;;;5072091;28;20199;-49
2021/10/12 04:07:10;;;;;;;10.70;7.00;;;9.00;99.90;;;;;;5070898;28;20203;-45
2021/10/12 04:09:37;;;;;;;8.25;7.45;;;8.90;99.90;;;;;;5074132;28;20222;-45
2021/10/12 04:12:05;;;;;;;8.77;7.88;;;8.70;99.90;;;;;;5060423;28;20199;-45
2021/10/12 04:14:32;;;;;;;11.55;7.38;;;8.50;99.90;;;;;;5063609;28;20514;-47
2021/10/12 04:16:59;;;;;;;16.58;8.50;;;8.40;99.90;;;;;;5070366;28;20220;-48
2021/10/12 04:19:26;;;;;;;9.30;7.20;;;8.40;99.90;;;;;;5079994;28;20490;-49
2021/10/12 04:21:53;;;;;;;13.48;8.13;;;8.40;99.90;;;;;;5069171;28;20194;-49
2021/10/12 04:24:20;;;;;;;15.57;8.55;;;8.30;99.90;;;;;;5081216;28;20220;-46
2021/10/12 04:26:47;;;;;;;13.32;8.60;;;8.30;99.90;;;;;;5064962;28;20399;-48
2021/10/12 04:29:14;;;;;;;11.32;8.27;;;8.10;99.90;;;;;;5073715;28;20245;-47
2021/10/12 04:31:42;;;;;;;14.63;9.25;;;8.00;99.90;;;;;;5083684;28;20191;-51
2021/10/12 04:34:09;;;;;;;11.35;8.63;;;7.90;99.90;;;;;;5079701;28;20257;-44
2021/10/12 04:36:36;;;;;;;12.05;9.20;;;8.00;99.90;;;;;;5076903;28;20215;-49
2021/10/12 04:39:04;;;;;;;13.70;8.75;;;8.20;99.90;;;;;;5067168;28;20379;-48
2021/10/12 04:41:32;;;;;;;13.07;10.00;;;8.30;99.90;;;;;;5069276;28;20431;-43
2021/10/12 04:44:06;;;;;;;12.90;7.97;;;8.30;99.90;;;;;;5075380;28;20214;-47
2021/10/12 04:46:33;;;;;;;14.50;9.85;;;8.50;99.90;;;;;;5069961;28;20271;-45
2021/10/12 04:49:01;;;;;;;11.48;7.95;;;8.60;99.90;;;;;;5075717;28;20262;-48
2021/10/12 04:51:28;;;;;;;13.77;9.98;;;8.60;99.90;;;;;;5080990;28;20332;-49
2021/10/12 04:53:55;;;;;;;14.57;9.77;;;8.80;99.90;;;;;;5083442;28;20249;-45
2021/10/12 04:56:22;;;;;;;17.75;10.30;;;8.70;99.90;;;;;;5083442;28;20299;-46
2021/10/12 04:58:50;;;;;;;16.92;10.13;;;8.70;99.90;;;;;;5080664;28;20233;-49
2021/10/12 05:01:17;;;;;;;13.88;10.45;;;8.60;99.90;;;;;;5077529;28;20379;-49
2021/10/12 05:03:44;;;;;;;13.75;9.45;;;8.40;99.90;;;;;;5077614;28;20222;-46
2021/10/12 05:06:11;;;;;;;14.02;9.30;;;8.40;99.90;;;;;;5071434;28;20297;-47
2021/10/12 05:08:39;;;;;;;13.80;11.15;;;8.50;99.90;;;;;;5074660;28;20195;-43
2021/10/12 05:11:06;;;;;;;16.90;11.15;;;8.40;99.90;;;;;;5080747;28;20240;-49
2021/10/12 05:13:33;;;;;;;14.63;10.65;;;8.40;99.90;;;;;;5070554;28;20269;-47
2021/10/12 05:16:13;;;;;;;14.18;10.57;;;8.30;99.90;;;;;;5081252;28;20195;-43
2021/10/12 05:18:43;;;;;;;16.00;9.85;;;8.20;99.90;;;;;;5084894;28;20198;-52
2021/10/12 05:21:10;;;;;;;15.20;10.90;;;8.20;99.90;;;;;;5076981;28;20260;-55
2021/10/12 05:23:37;;;;;;;15.68;11.32;;;8.30;99.90;;;;;;5069903;28;20219;-53
2021/10/12 05:26:06;;;;;;;13.95;9.82;;;8.30;99.90;;;;;;5073267;28;20195;-46
2021/10/12 05:28:35;;;;;;;19.35;12.63;;;8.30;99.90;;;;;;5069917;28;20195;-49
2021/10/12 05:31:02;;;;;;;13.35;10.25;;;8.30;99.90;;;;;;5072574;28;20564;-47
2021/10/12 05:33:30;;;;;;;21.70;12.63;;;8.30;99.90;;;;;;5067811;28;20459;-45
2021/10/12 05:35:57;;;;;;;17.80;10.63;;;8.40;99.90;;;;;;5071069;28;20202;-46
2021/10/12 05:38:24;;;;;;;15.90;10.85;;;8.40;99.90;;;;;;5062221;28;20266;-44
2021/10/12 05:40:52;;;;;;;16.70;10.63;;;8.40;99.90;;;;;;5080800;28;20195;-52
2021/10/12 05:43:19;;;;;;;12.23;9.60;;;8.50;99.90;;;;;;5078256;28;20249;-43
2021/10/12 05:45:46;;;;;;;17.65;11.68;;;8.60;99.90;;;;;;5065594;28;20398;-45
2021/10/12 05:48:14;;;;;;;16.02;9.73;;;9.00;99.90;;;;;;5068424;28;20257;-53
2021/10/12 05:50:42;;;;;;;16.65;10.98;;;9.20;99.90;;;;;;5069036;28;20237;-47
2021/10/12 05:53:33;;;;;;;16.38;10.63;;;9.40;99.90;;;;;;5066482;28;20224;-44
2021/10/12 05:56:06;;;;;;;13.93;10.48;;;9.50;99.90;;;;;;5065293;28;20207;-45
2021/10/12 05:58:49;;;;;;;13.23;9.93;;;9.30;99.90;;;;;;5068493;28;20196;-47
2021/10/12 06:01:21;;;;;;;13.18;11.77;;;9.40;99.90;;;;;;5069842;28;20204;-47
2021/10/12 06:03:49;;;;;;;17.73;12.02;;;9.60;99.90;;;;;;5074594;28;20246;-50
2021/10/12 06:06:16;;;;;;;13.95;8.65;;;9.70;99.90;;;;;;5072276;28;20203;-49
2021/10/12 06:08:44;;;;;;;11.90;8.52;;;9.60;99.90;;;;;;5060927;28;20277;-48
2021/10/12 06:11:11;;;;;;;11.45;8.80;;;9.70;99.90;;;;;;5071564;28;20209;-45
2021/10/12 06:13:41;;;;;;;11.48;7.18;;;9.90;99.90;;;;;;5074792;28;20223;-45
2021/10/12 06:16:08;;;;;;;10.05;6.78;;;9.90;99.90;;;;;;5069461;28;20558;-49
2021/10/12 06:18:36;;;;;;;11.32;6.25;;;10.00;99.90;;;;;;5077608;28;20232;-46
2021/10/12 06:21:03;;;;;;;9.15;6.75;;;9.90;99.90;;;;;;5072096;28;20243;-51
2021/10/12 06:23:31;;;;;;;7.38;5.70;;;10.00;99.90;;;;;;5072949;28;20253;-47
2021/10/12 06:25:58;;;;;;;10.82;7.63;;;10.10;99.90;;;;;;5072091;28;20204;-48
2021/10/12 06:28:27;;;;;;;6.80;6.10;;;10.20;99.90;;;;;;5061237;28;20201;-51
2021/10/12 06:30:55;;;;;;;9.18;5.63;;;10.30;99.90;;;;;;5070471;28;20202;-53
2021/10/12 06:33:22;;;;;;;12.30;7.60;;;10.10;99.90;;;;;;5062590;28;20224;-48
2021/10/12 06:35:49;;;;;;;7.45;6.53;;;10.00;99.90;;;;;;5077373;28;20200;-46
2021/10/12 06:38:16;;;;;;;11.52;4.97;;;10.30;99.90;;;;;;5069929;28;20306;-50
2021/10/12 06:40:44;;;;;;;6.47;5.90;;;10.60;99.90;;;;;;5068275;28;20198;-45
2021/10/12 06:43:11;;;;;;;9.77;6.45;;;10.60;99.90;;;;;;5071293;28;20220;-49
2021/10/12 06:45:39;;;;;;;8.25;5.78;;;10.40;99.90;;;;;;5074127;28;20251;-52
2021/10/12 06:48:06;;;;;;;9.73;5.05;;;10.40;99.90;;;;;;5061081;28;20503;-48
2021/10/12 06:50:34;;;;;;;6.13;4.40;;;10.30;99.90;;;;;;5074824;28;20229;-44
2021/10/12 06:53:03;;;;;;;6.22;5.00;;;10.40;99.90;;;;;;5074085;28;20276;-43
2021/10/12 06:55:31;;;;;;;12.82;6.00;;;10.60;99.90;;;;;;5065436;28;20200;-45
2021/10/12 06:57:58;;;;;;;9.10;5.45;;;10.80;99.90;;;;;;5080699;28;20229;-52
2021/10/12 07:00:25;;;;;;;5.93;5.40;;;10.50;99.90;;;;;;5075474;28;20206;-47
2021/10/12 07:02:52;;;;;;;11.23;5.57;;;10.40;99.90;;;;;;5063092;28;20225;-52
2021/10/12 07:05:20;;;;;;;8.48;5.75;;;10.30;99.90;;;;;;5068661;28;20243;-43
2021/10/12 07:07:47;;;;;;;5.45;5.03;;;10.40;99.90;;;;;;5074052;28;20214;-46
2021/10/12 07:10:15;;;;;;;9.40;5.57;;;10.60;99.90;;;;;;5070499;28;20201;-50
2021/10/12 07:12:42;;;;;;;6.78;5.57;;;11.10;99.90;;;;;;5065995;28;20230;-49
2021/10/12 07:15:10;;;;;;;4.82;4.35;;;11.50;99.90;;;;;;5063422;28;20414;-58
2021/10/12 07:17:38;;;;;;;5.28;4.18;;;11.60;99.90;;;;;;5072114;28;20459;-49
2021/10/12 07:20:07;;;;;;;8.10;4.22;;;11.60;99.90;;;;;;5078991;28;20204;-46
2021/10/12 07:22:34;;;;;;;6.70;4.13;;;11.40;99.90;;;;;;5065187;28;20217;-47
2021/10/12 07:25:06;;;;;;;8.20;4.53;;;11.80;99.90;;;;;;5067594;28;20206;-45
2021/10/12 07:27:34;;;;;;;6.10;3.83;;;13.10;99.90;;;;;;5070898;28;20207;-46
2021/10/12 07:30:17;;;;;;;9.25;5.07;;;13.90;99.90;;;;;;5069768;28;20206;-46
2021/10/12 07:32:44;;;;;;;3.92;3.30;;;14.80;99.90;;;;;;5081531;28;20288;-44
2021/10/12 07:35:11;;;;;;;9.80;6.40;;;15.60;99.90;;;;;;5079081;28;20436;-44
2021/10/12 07:37:41;;;;;;;4.95;4.25;;;15.70;99.90;;;;;;5066048;28;20514;-48
2021/10/12 07:40:10;;;;;;;4.65;4.18;;;15.60;99.90;;;;;;5062899;28;20199;-47
2021/10/12 07:42:37;;;;;;;5.57;3.83;;;16.10;99.90;;;;;;5065499;28;20225;-54
2021/10/12 07:45:05;;;;;;;5.07;3.60;;;17.10;99.90;;;;;;5073521;28;20481;-48
2021/10/12 07:47:33;;;;;;;4.13;3.83;;;16.90;99.90;;;;;;5079700;28;20452;-44
2021/10/12 07:50:01;;;;;;;4.60;4.13;;;16.00;99.90;;;;;;5078101;28;20444;-48
2021/10/12 07:52:31;;;;;;;5.78;3.80;;;15.00;99.90;;;;;;5064180;28;20494;-46
2021/10/12 07:55:12;;;;;;;7.38;4.20;;;14.60;99.90;;;;;;5069777;28;20208;-47
2021/10/12 07:57:40;;;;;;;4.88;4.38;;;14.20;99.90;;;;;;5073597;28;20218;-46
2021/10/12 08:00:09;;;;;;;7.22;3.95;;;13.70;99.90;;;;;;5067484;28;20196;-50
2021/10/12 08:02:36;;;;;;;8.85;3.67;;;13.40;99.90;;;;;;5066770;28;20223;-49
2021/10/12 08:05:04;;;;;;;4.90;4.55;;;13.30;99.90;;;;;;5070018;28;20461;-48
2021/10/12 08:07:31;;;;;;;6.75;5.82;;;13.10;99.90;;;;;;5078970;28;20203;-50
2021/10/12 08:09:58;;;;;;;5.43;4.32;;;13.40;99.90;;;;;;5077007;28;20220;-47
2021/10/12 08:12:26;;;;;;;3.83;3.40;;;13.80;99.90;;;;;;5071147;28;20942;-45
2021/10/12 08:14:59;;;;;;;4.82;4.13;;;14.30;99.90;;;;;;5067053;28;20560;-46
2021/10/12 08:17:26;;;;;;;4.65;4.25;;;14.40;99.90;;;;;;5073551;28;20267;-49
2021/10/12 08:19:53;;;;;;;4.55;3.55;;;14.40;99.90;;;;;;5069875;28;20202;-52
2021/10/12 08:22:21;;;;;;;8.25;3.75;;;14.10;99.90;;;;;;5066689;28;20196;-46
2021/10/12 08:24:48;;;;;;;10.85;4.35;;;13.80;99.90;;;;;;5068694;28;20218;-44
2021/10/12 08:27:16;;;;;;;4.82;3.85;;;13.60;99.90;;;;;;5076517;28;20282;-44
2021/10/12 08:29:43;;;;;;;9.45;5.68;;;13.50;99.90;;;;;;5077038;28;20211;-45
2021/10/12 08:32:15;;;;;;;4.72;3.10;;;13.60;99.90;;;;;;5081304;28;20278;-45
2021/10/12 08:34:42;;;;;;;4.55;3.42;;;14.00;99.90;;;;;;5075841;28;20199;-45
2021/10/12 08:37:09;;;;;;;8.45;3.60;;;13.80;99.90;;;;;;5072172;28;20242;-45
2021/10/12 08:39:41;;;;;;;5.13;3.75;;;13.30;99.90;;;;;;5082953;28;20232;-45
2021/10/12 08:42:22;;;;;;;4.30;3.85;;;13.80;99.90;;;;;;5082618;28;20210;-45
2021/10/12 08:45:03;;;;;;;5.00;4.22;;;14.80;99.90;;;;;;5082686;28;20207;-46
2021/10/12 08:47:31;;;;;;;10.13;5.05;;;16.00;99.90;;;;;;5074960;28;20502;-44
2021/10/12 08:50:00;;;;;;;5.97;3.92;;;16.50;99.90;;;;;;5075228;28;20211;-46
2021/10/12 08:52:27;;;;;;;9.82;4.00;;;16.40;99.90;;;;;;5079947;28;20249;-47
2021/10/12 08:54:56;;;;;;;4.20;3.80;;;15.90;99.90;;;;;;5086981;28;20199;-45
2021/10/12 08:57:31;;;;;;;4.30;3.90;;;16.20;99.90;;;;;;5099114;28;20283;-48
2021/10/12 09:00:00;;;;;;;5.87;4.30;;;17.10;99.90;;;;;;5074332;28;20740;-44
2021/10/12 09:02:29;;;;;;;5.87;4.73;;;16.70;99.90;;;;;;5069858;28;20462;-45
2021/10/12 09:05:00;;;;;;;4.18;3.78;;;15.70;99.90;;;;;;5073987;28;20400;-51
2021/10/12 09:07:30;;;;;;;6.03;3.70;;;14.90;99.90;;;;;;5092669;28;20224;-44
2021/10/12 09:09:57;;;;;;;5.90;4.30;;;14.60;99.90;;;;;;5095738;28;20198;-48
2021/10/12 09:12:43;;;;;;;9.85;4.00;;;14.50;99.90;;;;;;5088635;28;20230;-47
2021/10/12 09:15:11;;;;;;;5.45;4.13;;;14.60;99.90;;;;;;5071852;28;20527;-48
2021/10/12 09:17:40;;;;;;;4.68;3.40;;;14.90;99.90;;;;;;5093397;28;20541;-47
2021/10/12 09:20:10;;;;;;;7.47;3.42;;;15.30;99.90;;;;;;5093476;28;20203;-49
2021/10/12 09:22:39;;;;;;;3.60;3.40;;;15.10;99.90;;;;;;5081679;28;20262;-47
2021/10/12 09:25:14;;;;;;;3.40;3.13;;;14.70;99.90;;;;;;5075992;28;20199;-44
2021/10/12 09:27:56;;;;;;;3.45;3.25;;;14.40;99.90;;;;;;5069703;28;20510;-48
2021/10/12 09:30:38;;;;;;;4.10;3.80;;;14.20;99.90;;;;;;5065890;28;20207;-43
2021/10/12 09:33:11;;;;;;;4.75;3.67;;;14.30;99.90;;;;;;5071748;28;20218;-47
2021/10/12 09:35:38;;;;;;;5.20;4.07;;;14.40;99.90;;;;;;5081179;28;20199;-45
2021/10/12 09:38:14;;;;;;;5.75;3.83;;;14.50;99.90;;;;;;5072213;28;20260;-49
2021/10/12 09:40:45;;;;;;;4.38;3.22;;;15.00;99.90;;;;;;5066499;28;20196;-50
2021/10/12 09:43:17;;;;;;;6.90;3.92;;;15.00;99.90;;;;;;5068589;28;20223;-44
2021/10/12 09:45:46;;;;;;;3.50;3.30;;;14.50;99.90;;;;;;5065453;28;20527;-45
2021/10/12 09:48:32;;;;;;;3.22;3.03;;;14.10;99.90;;;;;;5078278;28;20198;-48
2021/10/12 09:51:10;;;;;;;5.50;2.60;;;13.50;99.90;;;;;;5066584;28;20221;-48
2021/10/12 09:53:39;;;;;;;4.10;3.45;;;13.40;99.90;;;;;;5066007;28;20532;-44
2021/10/12 09:56:08;;;;;;;3.20;3.00;;;13.50;99.90;;;;;;5069883;28;20204;-43
2021/10/12 09:58:36;;;;;;;3.05;2.85;;;13.80;99.90;;;;;;5068735;28;20222;-46
2021/10/12 10:01:08;;;;;;;3.83;2.90;;;14.30;99.90;;;;;;5063848;28;20233;-49
2021/10/12 10:03:36;;;;;;;3.78;3.28;;;14.60;99.90;;;;;;5066725;28;20230;-43
2021/10/12 10:06:11;;;;;;;5.10;4.60;;;14.80;99.90;;;;;;5071972;28;20500;-48
2021/10/12 10:08:48;;;;;;;3.13;2.90;;;14.60;99.90;;;;;;5061074;28;20513;-45
2021/10/12 10:11:35;;;;;;;3.03;2.83;;;14.50;99.90;;;;;;5072441;28;20286;-50
2021/10/12 10:14:05;;;;;;;2.78;2.58;;;14.20;99.90;;;;;;5082084;28;20235;-50
2021/10/12 10:16:35;;;;;;;5.10;2.65;;;13.60;99.90;;;;;;5072398;28;20199;-48
2021/10/12 10:19:05;;;;;;;6.75;2.78;;;12.90;99.90;;;;;;5075625;28;20229;-46
2021/10/12 10:21:37;;;;;;;3.85;3.10;;;12.30;99.90;;;;;;5070342;28;20195;-46
2021/10/12 10:24:12;;;;;;;3.80;3.25;;;12.30;99.90;;;;;;5068710;28;20253;-48
2021/10/12 10:26:41;;;;;;;3.72;2.83;;;12.70;99.90;;;;;;5069348;28;20217;-45
2021/10/12 10:29:22;;;;;;;6.13;3.58;;;13.30;99.90;;;;;;5073734;28;20199;-50
2021/10/12 10:32:24;;;;;;;5.18;3.38;;;13.80;99.90;;;;;;5069163;28;20201;-56
2021/10/12 10:35:03;;;;;;;11.82;6.25;;;14.80;99.90;;;;;;5068524;28;20306;-48
2021/10/12 10:37:32;;;;;;;5.65;3.95;;;15.30;99.90;;;;;;5071632;28;20207;-50
2021/10/12 10:40:23;;;;;;;3.50;3.20;;;15.90;99.90;;;;;;5085234;28;20195;-52
2021/10/12 10:42:52;;;;;;;16.70;9.45;;;16.20;99.90;;;;;;5073719;28;20433;-49
2021/10/12 10:45:20;;;;;;;7.80;4.35;;;15.50;99.90;;;;;;5080063;28;20188;-46
2021/10/12 10:47:49;;;;;;;4.50;2.20;;;15.40;99.90;;;;;;5067418;28;20200;-49
2021/10/12 10:50:25;;;;;;;9.98;1.83;;;15.10;99.90;;;;;;5077931;28;20204;-44
2021/10/12 10:53:00;;;;;;;3.67;1.90;;;14.90;99.90;;;;;;5082456;28;20225;-54
2021/10/12 10:55:36;;;;;;;3.47;2.00;;;14.30;99.90;;;;;;5093252;28;20220;-48
2021/10/12 10:58:09;;;;;;;1.90;1.80;;;13.50;99.90;;;;;;5097024;28;20262;-53
2021/10/12 11:00:43;;;;;;;3.83;1.70;;;12.90;99.90;;;;;;5060537;28;20196;-45
2021/10/12 11:03:32;;;;;;;2.90;2.53;;;12.60;99.90;;;;;;5095093;28;20218;-47
2021/10/12 11:06:11;;;;;;;4.15;3.72;;;12.40;99.90;;;;;;5067685;28;20224;-48
2021/10/12 11:08:41;;;;;;;4.63;2.42;;;12.30;99.90;;;;;;5063728;28;20245;-48
2021/10/12 11:11:09;;;;;;;5.25;1.90;;;12.20;99.90;;;;;;5070043;28;20546;-49
2021/10/12 11:13:42;;;;;;;3.10;2.33;;;12.30;99.90;;;;;;5066695;28;20234;-48
2021/10/12 11:16:11;;;;;;;2.00;1.80;;;12.50;99.90;;;;;;5079736;28;20218;-47
2021/10/12 11:18:41;;;;;;;10.23;3.30;;;13.00;99.90;;;;;;5090046;28;20561;-45
2021/10/12 11:21:12;;;;;;;6.45;2.33;;;13.60;99.90;;;;;;5076507;28;20214;-48
2021/10/12 11:23:41;;;;;;;4.93;2.10;;;14.40;99.90;;;;;;5065954;28;20313;-49
2021/10/12 11:26:14;;;;;;;3.03;2.13;;;15.00;99.90;;;;;;5069504;28;20195;-48
2021/10/12 11:28:51;;;;;;;3.92;2.30;;;15.30;99.90;;;;;;5061863;28;20229;-51
2021/10/12 11:31:21;;;;;;;6.03;2.67;;;15.50;99.90;;;;;;5077358;28;20237;-48
2021/10/12 11:33:50;;;;;;;3.47;2.92;;;15.90;99.90;;;;;;5078387;28;20250;-51
2021/10/12 11:36:21;;;;;;;4.95;2.45;;;15.70;99.90;;;;;;5073026;28;20390;-47
2021/10/12 11:39:05;;;;;;;3.55;2.00;;;15.20;99.90;;;;;;5064859;28;20246;-49
2021/10/12 11:41:39;;;;;;;5.00;2.35;;;14.70;99.90;;;;;;5072196;28;20241;-49
2021/10/12 11:44:16;;;;;;;2.55;2.35;;;14.60;99.90;;;;;;5077556;28;20214;-48
2021/10/12 11:46:51;;;;;;;1.75;1.65;;;14.20;99.90;;;;;;5053821;28;20238;-50
2021/10/12 11:49:20;;;;;;;2.25;1.65;;;13.80;99.90;;;;;;5076308;28;20513;-47
2021/10/12 11:51:49;;;;;;;1.35;1.25;;;13.40;99.90;;;;;;5076685;28;20439;-50
2021/10/12 11:54:25;;;;;;;1.85;1.75;;;12.30;99.90;;;;;;5066582;28;20479;-50
2021/10/12 11:56:52;;;;;;;4.40;2.20;;;10.80;99.90;;;;;;5064014;28;20228;-53
2021/10/12 11:59:19;;;;;;;3.15;2.17;;;10.00;99.90;;;;;;5076425;28;20292;-51
2021/10/12 12:01:47;;;;;;;2.17;2.08;;;9.50;99.90;;;;;;5075715;28;20197;-51
2021/10/12 12:04:28;;;;;;;1.90;1.80;;;9.40;99.90;;;;;;5085452;28;20225;-50
2021/10/12 12:07:05;;;;;;;2.55;2.20;;;9.30;99.90;;;;;;5089554;28;20212;-46
2021/10/12 12:09:32;;;;;;;3.45;2.85;;;9.30;99.90;;;;;;5089147;28;20205;-49
2021/10/12 12:12:02;;;;;;;2.58;2.47;;;9.30;99.90;;;;;;5067176;28;20510;-46
2021/10/12 12:14:29;;;;;;;3.53;2.65;;;9.20;99.90;;;;;;5048580;28;20262;-45
2021/10/12 12:17:20;;;;;;;4.07;3.38;;;9.20;99.90;;;;;;5075818;28;20514;-48
2021/10/12 12:19:50;;;;;;;3.67;3.38;;;9.10;99.90;;;;;;5072584;28;20261;-54
2021/10/12 12:22:22;;;;;;;3.75;3.45;;;9.10;99.90;;;;;;5059397;28;20200;-48
2021/10/12 12:25:03;;;;;;;4.18;3.50;;;9.10;99.90;;;;;;5065115;28;20192;-48
2021/10/12 12:27:34;;;;;;;5.68;4.13;;;9.20;99.90;;;;;;5066443;28;20203;-49
2021/10/12 12:30:09;;;;;;;4.88;3.38;;;9.30;99.90;;;;;;5078961;28;20203;-46
2021/10/12 12:32:38;;;;;;;4.95;4.45;;;9.40;99.90;;;;;;5072320;28;20220;-45
2021/10/12 12:35:07;;;;;;;7.30;4.90;;;9.40;99.90;;;;;;5069459;28;20228;-49
2021/10/12 12:37:35;;;;;;;8.30;5.65;;;9.50;99.90;;;;;;5065533;28;20200;-49
2021/10/12 12:40:26;;;;;;;10.30;7.40;;;9.60;99.90;;;;;;5079194;28;20266;-48
2021/10/12 12:42:54;;;;;;;6.95;5.57;;;9.70;99.90;;;;;;5070833;28;20285;-49
2021/10/12 12:45:22;;;;;;;6.25;5.65;;;10.00;99.90;;;;;;5073587;28;20242;-50
2021/10/12 12:47:55;;;;;;;8.68;6.40;;;10.20;99.90;;;;;;5068434;28;20197;-45
2021/10/12 12:50:36;;;;;;;6.43;5.85;;;10.40;99.90;;;;;;5070207;28;20205;-47
2021/10/12 12:53:06;;;;;;;7.38;5.35;;;10.40;99.90;;;;;;5076536;28;20356;-47
2021/10/12 12:55:35;;;;;;;6.00;5.60;;;10.40;99.90;;;;;;5069336;28;20197;-48